createdAt,value
2018-08-13T00:00:30.264Z,378.60
2018-08-13T00:02:57.619Z,451.87
2018-08-13T00:05:24.901Z,455.00
2018-08-13T00:07:52.105Z,376.53
2018-08-13T00:10:19.331Z,452.63
2018-08-13T00:12:46.542Z,376.73
2018-08-13T00:15:13.761Z,170.87
2018-08-13T00:17:41.001Z,455.47
2018-08-13T00:20:08.239Z,526.57
2018-08-13T00:22:35.462Z,571.20
2018-08-13T00:25:02.723Z,208.83
2018-08-13T00:27:29.959Z,220.63
2018-08-13T00:29:57.247Z,563.97
2018-08-13T00:32:24.487Z,542.07
2018-08-13T00:34:51.699Z,525.17
2018-08-13T00:37:18.903Z,530.20
2018-08-13T00:39:46.139Z,523.67
2018-08-13T00:42:13.380Z,528.73
2018-08-13T00:44:40.624Z,537.10
2018-08-13T00:47:07.875Z,524.30
2018-08-13T00:49:35.103Z,534.80
2018-08-13T00:52:02.347Z,528.67
2018-08-13T00:54:29.551Z,525.90
2018-08-13T00:56:56.816Z,537.70
2018-08-13T00:59:24.024Z,540.53
2018-08-13T01:01:51.266Z,531.40
2018-08-13T01:04:18.542Z,529.53
2018-08-13T01:06:45.772Z,525.77
2018-08-13T01:09:13.024Z,530.47
2018-08-13T01:11:40.264Z,527.37
2018-08-13T01:14:07.530Z,528.33
2018-08-13T01:16:34.900Z,539.10
2018-08-13T01:19:02.168Z,525.97
2018-08-13T01:21:29.424Z,537.47
2018-08-13T01:23:56.647Z,526.07
2018-08-13T01:26:23.868Z,536.53
2018-08-13T01:28:51.084Z,529.73
2018-08-13T01:31:18.319Z,541.30
2018-08-13T01:33:45.568Z,527.40
2018-08-13T01:36:13.051Z,525.10
2018-08-13T01:38:40.260Z,522.20
2018-08-13T01:41:07.487Z,532.93
2018-08-13T01:43:34.719Z,532.50
2018-08-13T01:46:01.955Z,530.03
2018-08-13T01:48:29.300Z,522.27
2018-08-13T01:50:56.559Z,530.83
2018-08-13T01:53:23.775Z,525.30
2018-08-13T01:55:50.995Z,525.83
2018-08-13T01:58:18.223Z,525.60
2018-08-13T02:00:45.410Z,537.80
2018-08-13T02:03:12.658Z,529.63
2018-08-13T02:05:39.894Z,523.77
2018-08-13T02:08:07.126Z,523.77
2018-08-13T02:10:34.349Z,525.73
2018-08-13T02:13:01.572Z,528.30
2018-08-13T02:15:28.922Z,529.80
2018-08-13T02:17:56.159Z,526.60
2018-08-13T02:20:23.426Z,526.37
2018-08-13T02:22:50.670Z,528.30
2018-08-13T02:25:17.890Z,530.03
2018-08-13T02:27:45.127Z,529.23
2018-08-13T02:30:12.383Z,523.00
2018-08-13T02:32:39.790Z,529.57
2018-08-13T02:35:07.902Z,524.30
2018-08-13T02:37:35.159Z,526.83
2018-08-13T02:40:02.428Z,533.13
2018-08-13T02:42:29.647Z,534.83
2018-08-13T02:44:56.852Z,534.67
2018-08-13T02:47:24.099Z,525.57
2018-08-13T02:49:51.303Z,525.17
2018-08-13T02:52:18.522Z,530.70
2018-08-13T02:54:45.735Z,527.27
2018-08-13T02:57:12.962Z,526.10
2018-08-13T02:59:40.164Z,523.17
2018-08-13T03:02:07.435Z,522.63
2018-08-13T03:04:34.718Z,521.43
2018-08-13T03:07:02.101Z,526.73
2018-08-13T03:09:29.370Z,524.40
2018-08-13T03:11:56.668Z,529.50
2018-08-13T03:14:23.883Z,519.33
2018-08-13T03:16:51.118Z,527.30
2018-08-13T03:19:18.358Z,524.70
2018-08-13T03:21:45.549Z,525.43
2018-08-13T03:24:12.802Z,525.67
2018-08-13T03:26:40.013Z,524.03
2018-08-13T03:29:07.223Z,525.10
2018-08-13T03:31:34.467Z,523.17
2018-08-13T03:34:01.717Z,526.43
2018-08-13T03:36:28.934Z,527.57
2018-08-13T03:38:56.179Z,525.83
2018-08-13T03:41:23.395Z,518.23
2018-08-13T03:43:50.591Z,513.90
2018-08-13T03:46:17.827Z,522.93
2018-08-13T03:48:45.051Z,518.33
2018-08-13T03:51:12.259Z,519.03
2018-08-13T03:53:39.561Z,516.73
2018-08-13T03:56:06.782Z,530.37
2018-08-13T03:58:33.991Z,520.93
2018-08-13T04:01:01.269Z,519.30
2018-08-13T04:03:28.855Z,529.83
2018-08-13T04:05:56.077Z,523.20
2018-08-13T04:08:23.336Z,528.30
2018-08-13T04:10:50.555Z,521.83
2018-08-13T04:13:17.777Z,517.93
2018-08-13T04:15:44.999Z,528.93
2018-08-13T04:18:12.256Z,523.53
2018-08-13T04:20:39.489Z,531.10
2018-08-13T04:23:06.726Z,523.83
2018-08-13T04:25:34.030Z,526.57
2018-08-13T04:28:01.251Z,521.73
2018-08-13T04:30:28.497Z,527.67
2018-08-13T04:32:55.823Z,524.73
2018-08-13T04:35:23.047Z,522.40
2018-08-13T04:37:50.447Z,524.57
2018-08-13T04:40:18.081Z,526.93
2018-08-13T04:42:46.358Z,528.23
2018-08-13T04:45:13.685Z,523.67
2018-08-13T04:47:45.711Z,525.27
2018-08-13T04:50:12.934Z,525.53
2018-08-13T04:52:40.179Z,525.03
2018-08-13T04:55:08.227Z,527.83
2018-08-13T04:57:35.472Z,524.30
2018-08-13T05:00:03.233Z,531.27
2018-08-13T05:02:30.434Z,527.70
2018-08-13T05:04:57.661Z,530.20
2018-08-13T05:07:24.938Z,525.30
2018-08-13T05:09:52.079Z,528.17
2018-08-13T05:12:19.295Z,528.70
2018-08-13T05:14:46.511Z,527.17
2018-08-13T05:17:13.726Z,529.30
2018-08-13T05:19:40.931Z,536.97
2018-08-13T05:22:08.156Z,531.20
2018-08-13T05:24:35.534Z,532.07
2018-08-13T05:27:02.771Z,531.17
2018-08-13T05:29:30.007Z,541.07
2018-08-13T05:31:57.213Z,531.10
2018-08-13T05:34:24.437Z,532.03
2018-08-13T05:36:51.663Z,546.50
2018-08-13T05:39:18.858Z,539.20
2018-08-13T05:41:46.065Z,537.67
2018-08-13T05:44:13.283Z,546.40
2018-08-13T05:46:40.523Z,541.23
2018-08-13T05:49:07.870Z,542.60
2018-08-13T05:51:35.078Z,537.83
2018-08-13T05:54:02.315Z,548.13
2018-08-13T05:56:29.544Z,554.13
2018-08-13T05:58:57.059Z,543.47
2018-08-13T06:01:24.273Z,546.37
2018-08-13T06:03:51.655Z,545.63
2018-08-13T06:06:18.870Z,553.63
2018-08-13T06:08:46.242Z,540.17
2018-08-13T06:11:13.485Z,544.60
2018-08-13T06:13:40.698Z,546.57
2018-08-13T06:16:07.902Z,542.43
2018-08-13T06:18:35.127Z,547.73
2018-08-13T06:21:02.330Z,546.63
2018-08-13T06:23:29.550Z,540.23
2018-08-13T06:25:56.771Z,553.07
2018-08-13T06:28:23.972Z,543.97
2018-08-13T06:30:51.207Z,540.47
2018-08-13T06:33:18.447Z,538.00
2018-08-13T06:35:45.669Z,547.47
2018-08-13T06:38:12.903Z,553.43
2018-08-13T06:40:40.102Z,549.47
2018-08-13T06:43:07.319Z,538.03
2018-08-13T06:45:34.510Z,551.40
2018-08-13T06:48:01.975Z,537.23
2018-08-13T06:50:29.169Z,543.80
2018-08-13T06:52:56.365Z,543.70
2018-08-13T06:55:23.558Z,557.53
2018-08-13T06:57:50.881Z,565.17
2018-08-13T07:00:18.229Z,556.80
2018-08-13T07:02:45.468Z,570.93
2018-08-13T07:05:12.700Z,556.30
2018-08-13T07:07:40.369Z,562.43
2018-08-13T07:10:11.578Z,577.60
2018-08-13T07:12:39.658Z,571.13
2018-08-13T07:15:06.990Z,570.47
2018-08-13T07:17:34.292Z,558.67
2018-08-13T07:20:01.598Z,565.67
2018-08-13T07:22:28.938Z,569.27
2018-08-13T07:24:56.058Z,555.67
2018-08-13T07:27:23.288Z,571.97
2018-08-13T07:29:50.740Z,563.67
2018-08-13T07:32:17.942Z,558.47
2018-08-13T07:34:45.143Z,559.33
2018-08-13T07:37:12.395Z,549.33
2018-08-13T07:39:39.612Z,556.90
2018-08-13T07:42:06.848Z,554.17
2018-08-13T07:44:34.063Z,560.43
2018-08-13T07:47:01.266Z,552.73
2018-08-13T07:49:28.507Z,548.17
2018-08-13T07:51:55.756Z,550.73
2018-08-13T07:54:22.957Z,566.40
2018-08-13T07:56:50.181Z,554.97
2018-08-13T07:59:17.454Z,563.03
2018-08-13T08:01:44.684Z,562.70
2018-08-13T08:04:11.976Z,554.67
2018-08-13T08:06:39.447Z,558.80
2018-08-13T08:09:08.722Z,567.47
2018-08-13T08:11:36.139Z,584.60
2018-08-13T08:14:04.330Z,569.77
2018-08-13T08:16:31.688Z,577.13
2018-08-13T08:18:58.929Z,580.60
2018-08-13T08:21:26.259Z,585.73
2018-08-13T08:23:53.399Z,729.70
2018-08-13T08:26:20.744Z,739.40
2018-08-13T08:28:48.213Z,725.07
2018-08-13T08:31:15.469Z,705.67
2018-08-13T08:33:42.710Z,650.07
2018-08-13T08:36:09.968Z,587.53
2018-08-13T08:38:37.188Z,587.57
2018-08-13T08:41:04.423Z,584.37
2018-08-13T08:43:31.706Z,581.50
2018-08-13T08:45:59.035Z,568.57
2018-08-13T08:48:26.254Z,570.30
2018-08-13T08:50:53.478Z,574.10
2018-08-13T08:53:21.074Z,561.30
2018-08-13T08:55:48.314Z,557.67
2018-08-13T08:58:15.553Z,565.33
2018-08-13T09:00:42.875Z,559.70
2018-08-13T09:03:10.101Z,547.00
2018-08-13T09:05:37.326Z,551.33
2018-08-13T09:08:04.598Z,535.27
2018-08-13T09:10:31.870Z,539.87
2018-08-13T09:12:59.098Z,536.23
2018-08-13T09:15:26.337Z,530.67
2018-08-13T09:18:05.299Z,542.53
2018-08-13T09:20:44.120Z,536.23
2018-08-13T09:23:23.051Z,537.27
2018-08-13T09:26:01.924Z,544.30
2018-08-13T09:28:40.697Z,544.37
2018-08-13T09:31:19.583Z,540.87
2018-08-13T09:33:58.423Z,540.80
2018-08-13T09:36:25.668Z,539.30
2018-08-13T09:38:52.863Z,542.67
2018-08-13T09:41:20.076Z,537.80
2018-08-13T09:43:47.278Z,537.97
2018-08-13T09:46:14.523Z,540.63
2018-08-13T09:48:41.751Z,550.80
2018-08-13T09:51:08.978Z,547.80
2018-08-13T09:53:36.207Z,553.70
2018-08-13T09:56:03.471Z,552.93
2018-08-13T09:58:30.696Z,557.23
2018-08-13T10:01:03.736Z,568.97
2018-08-13T10:03:31.566Z,560.50
2018-08-13T10:05:58.817Z,565.13
2018-08-13T10:08:26.031Z,563.43
2018-08-13T10:10:53.286Z,564.87
2018-08-13T10:13:20.531Z,570.90
2018-08-13T10:15:47.743Z,582.63
2018-08-13T10:18:14.970Z,568.03
2018-08-13T10:20:42.251Z,568.93
2018-08-13T10:23:09.478Z,562.07
2018-08-13T10:25:36.716Z,562.13
2018-08-13T10:28:03.977Z,566.07
2018-08-13T10:30:31.300Z,567.43
2018-08-13T10:32:58.674Z,574.57
2018-08-13T10:35:25.919Z,575.80
2018-08-13T10:37:53.159Z,560.40
2018-08-13T10:40:20.412Z,564.23
2018-08-13T10:42:47.990Z,560.93
2018-08-13T10:45:15.421Z,552.33
2018-08-13T10:47:42.662Z,565.03
2018-08-13T10:50:11.624Z,560.93
2018-08-13T10:52:39.042Z,560.30
2018-08-13T10:55:06.849Z,554.30
2018-08-13T10:57:34.122Z,558.37
2018-08-13T11:00:01.358Z,558.37
2018-08-13T11:02:28.667Z,552.97
2018-08-13T11:04:55.886Z,562.53
2018-08-13T11:07:23.087Z,555.87
2018-08-13T11:09:50.412Z,553.70
2018-08-13T11:12:18.588Z,564.03
2018-08-13T11:14:46.102Z,557.63
2018-08-13T11:17:13.966Z,556.40
2018-08-13T11:19:41.407Z,557.80
2018-08-13T11:22:08.726Z,557.13
2018-08-13T11:24:36.063Z,551.93
2018-08-13T11:27:03.471Z,562.17
2018-08-13T11:29:31.054Z,547.93
2018-08-13T11:31:58.310Z,548.70
2018-08-13T11:34:25.666Z,544.37
2018-08-13T11:36:53.039Z,539.93
2018-08-13T11:39:20.269Z,545.97
2018-08-13T11:41:47.534Z,541.77
2018-08-13T11:44:14.751Z,551.67
2018-08-13T11:46:42.098Z,534.57
2018-08-13T11:49:09.332Z,576.80
2018-08-13T11:51:36.607Z,512.23
2018-08-13T11:54:03.929Z,546.90
2018-08-13T11:56:31.267Z,543.40
2018-08-13T11:58:58.594Z,546.23
2018-08-13T12:01:25.832Z,536.23
2018-08-13T12:03:53.083Z,537.87
2018-08-13T12:06:20.322Z,538.93
2018-08-13T12:08:47.531Z,550.47
2018-08-13T12:11:14.758Z,543.90
2018-08-13T12:13:42.063Z,556.37
2018-08-13T12:16:09.423Z,548.63
2018-08-13T12:18:36.703Z,554.40
2018-08-13T12:21:03.913Z,546.60
2018-08-13T12:23:31.127Z,555.43
2018-08-13T12:25:58.375Z,554.63
2018-08-13T12:28:25.594Z,560.47
2018-08-13T12:30:52.830Z,545.00
2018-08-13T12:33:20.169Z,550.57
2018-08-13T12:35:47.525Z,547.83
2018-08-13T12:38:14.786Z,550.37
2018-08-13T12:40:41.991Z,550.83
2018-08-13T12:43:09.248Z,544.50
2018-08-13T12:45:36.464Z,557.40
2018-08-13T12:48:03.686Z,550.37
2018-08-13T12:50:31.057Z,546.80
2018-08-13T12:52:58.279Z,560.17
2018-08-13T12:55:25.504Z,542.43
2018-08-13T12:57:52.730Z,541.73
2018-08-13T13:00:19.981Z,553.50
2018-08-13T13:02:47.241Z,542.10
2018-08-13T13:05:15.492Z,539.63
2018-08-13T13:07:42.703Z,545.10
2018-08-13T13:10:12.063Z,535.57
2018-08-13T13:12:39.857Z,537.13
2018-08-13T13:15:09.765Z,542.73
2018-08-13T13:17:37.952Z,537.73
2018-08-13T13:20:06.644Z,531.47
2018-08-13T13:22:33.851Z,535.47
2018-08-13T13:25:01.132Z,541.27
2018-08-13T13:27:28.332Z,536.83
2018-08-13T13:29:55.564Z,540.57
2018-08-13T13:32:22.775Z,532.90
2018-08-13T13:34:50.000Z,541.37
2018-08-13T13:37:17.213Z,547.47
2018-08-13T13:39:44.444Z,556.03
2018-08-13T13:42:11.670Z,558.40
2018-08-13T13:44:38.937Z,561.23
2018-08-13T13:47:06.187Z,565.27
2018-08-13T13:49:34.028Z,573.60
2018-08-13T13:52:01.359Z,576.37
2018-08-13T13:54:28.558Z,622.20
2018-08-13T13:56:55.750Z,637.77
2018-08-13T13:59:22.982Z,597.33
2018-08-13T14:01:50.198Z,630.73
2018-08-13T14:04:17.402Z,583.30
2018-08-13T14:06:44.647Z,585.17
2018-08-13T14:09:12.218Z,581.43
2018-08-13T14:11:39.447Z,647.87
2018-08-13T14:14:07.695Z,597.50
2018-08-13T14:16:34.907Z,646.80
2018-08-13T14:19:02.193Z,613.70
2018-08-13T14:21:29.601Z,572.73
2018-08-13T14:23:57.362Z,569.43
2018-08-13T14:26:24.604Z,576.20
2018-08-13T14:28:51.817Z,569.83
2018-08-13T14:31:19.038Z,560.93
2018-08-13T14:33:46.240Z,564.37
2018-08-13T14:36:13.466Z,560.33
2018-08-13T14:38:40.703Z,555.53
2018-08-13T14:41:07.964Z,558.43
2018-08-13T14:43:35.176Z,563.40
2018-08-13T14:46:02.492Z,563.33
2018-08-13T14:48:29.876Z,567.67
2018-08-13T14:50:57.112Z,550.00
2018-08-13T14:53:24.331Z,558.57
2018-08-13T14:55:51.575Z,554.27
2018-08-13T14:58:18.819Z,574.17
2018-08-13T15:00:46.092Z,565.90
2018-08-13T15:03:13.302Z,553.00
2018-08-13T15:05:41.036Z,577.20
2018-08-13T15:08:08.226Z,564.93
2018-08-13T15:10:35.478Z,567.93
2018-08-13T15:13:02.806Z,565.67
2018-08-13T15:15:29.931Z,563.27
2018-08-13T15:17:57.170Z,545.23
2018-08-13T15:20:26.563Z,554.30
2018-08-13T15:22:53.962Z,549.40
2018-08-13T15:25:21.194Z,554.80
2018-08-13T15:27:48.497Z,548.83
2018-08-13T15:30:16.968Z,542.77
2018-08-13T15:32:45.391Z,546.77
2018-08-13T15:35:12.682Z,547.60
2018-08-13T15:37:40.122Z,556.80
2018-08-13T15:40:08.201Z,551.57
2018-08-13T15:42:35.875Z,546.07
2018-08-13T15:45:04.067Z,554.50
2018-08-13T15:47:31.302Z,549.67
2018-08-13T15:49:58.534Z,549.87
2018-08-13T15:52:25.736Z,562.27
2018-08-13T15:54:52.967Z,569.43
2018-08-13T15:57:20.228Z,570.20
2018-08-13T15:59:47.565Z,564.60
2018-08-13T16:02:14.786Z,574.57
2018-08-13T16:04:41.979Z,562.40
2018-08-13T16:07:11.096Z,565.73
2018-08-13T16:09:38.552Z,572.83
2018-08-13T16:12:06.091Z,557.30
2018-08-13T16:14:33.336Z,568.53
2018-08-13T16:17:00.587Z,569.47
2018-08-13T16:19:27.838Z,560.90
2018-08-13T16:21:55.137Z,553.53
2018-08-13T16:24:22.415Z,557.70
2018-08-13T16:26:49.935Z,570.10
2018-08-13T16:29:17.502Z,566.77
2018-08-13T16:31:44.776Z,565.17
2018-08-13T16:34:12.070Z,562.17
2018-08-13T16:36:39.262Z,545.20
2018-08-13T16:39:08.330Z,548.30
2018-08-13T16:41:35.626Z,554.73
2018-08-13T16:44:02.898Z,542.80
2018-08-13T16:46:30.509Z,543.80
2018-08-13T16:48:57.712Z,549.73
2018-08-13T16:51:24.999Z,539.70
2018-08-13T16:53:52.251Z,541.07
2018-08-13T16:56:19.514Z,536.90
2018-08-13T16:58:46.716Z,544.37
2018-08-13T17:01:14.056Z,545.63
2018-08-13T17:03:41.315Z,534.20
2018-08-13T17:06:08.547Z,544.20
2018-08-13T17:08:35.852Z,536.67
2018-08-13T17:11:03.141Z,550.60
2018-08-13T17:13:30.440Z,537.33
2018-08-13T17:15:57.603Z,536.43
2018-08-13T17:18:24.821Z,528.13
2018-08-13T17:20:52.048Z,544.07
2018-08-13T17:23:19.318Z,544.90
2018-08-13T17:25:46.539Z,531.17
2018-08-13T17:28:13.794Z,531.90
2018-08-13T17:30:40.999Z,530.23
2018-08-13T17:33:08.233Z,537.33
2018-08-13T17:35:35.659Z,533.70
2018-08-13T17:38:04.767Z,534.90
2018-08-13T17:40:32.049Z,536.93
2018-08-13T17:42:59.616Z,541.17
2018-08-13T17:45:26.715Z,533.97
2018-08-13T17:47:53.950Z,538.87
2018-08-13T17:50:21.616Z,529.63
2018-08-13T17:52:49.408Z,531.83
2018-08-13T17:55:16.806Z,530.33
2018-08-13T17:57:44.262Z,534.80
2018-08-13T18:00:13.995Z,535.93
2018-08-13T18:02:41.725Z,533.93
2018-08-13T18:05:11.182Z,524.80
2018-08-13T18:07:38.423Z,530.37
2018-08-13T18:10:08.576Z,522.23
2018-08-13T18:12:36.054Z,528.13
2018-08-13T18:15:05.393Z,516.87
2018-08-13T18:17:32.646Z,520.03
2018-08-13T18:19:59.847Z,530.83
2018-08-13T18:22:27.074Z,526.80
2018-08-13T18:24:54.300Z,525.93
2018-08-13T18:27:21.506Z,530.50
2018-08-13T18:29:48.720Z,526.87
2018-08-13T18:32:15.950Z,521.13
2018-08-13T18:34:43.254Z,530.73
2018-08-13T18:37:10.455Z,521.93
2018-08-13T18:39:37.670Z,522.93
2018-08-13T18:42:04.886Z,522.20
2018-08-13T18:44:32.133Z,512.23
2018-08-13T18:46:59.466Z,515.60
2018-08-13T18:49:26.626Z,522.53
2018-08-13T18:51:53.831Z,517.10
2018-08-13T18:54:21.034Z,516.37
2018-08-13T18:56:48.274Z,525.33
2018-08-13T18:59:15.531Z,520.90
2018-08-13T19:01:42.710Z,519.90
2018-08-13T19:04:09.942Z,528.50
2018-08-13T19:06:37.473Z,517.97
2018-08-13T19:09:06.337Z,518.43
2018-08-13T19:11:33.622Z,521.10
2018-08-13T19:14:00.883Z,521.03
2018-08-13T19:16:28.109Z,515.97
2018-08-13T19:18:55.321Z,529.77
2018-08-13T19:21:22.546Z,516.50
2018-08-13T19:23:49.815Z,519.10
2018-08-13T19:26:17.082Z,520.40
2018-08-13T19:28:44.282Z,518.07
2018-08-13T19:31:11.491Z,522.40
2018-08-13T19:33:38.716Z,526.13
2018-08-13T19:36:05.961Z,517.43
2018-08-13T19:38:33.207Z,514.37
2018-08-13T19:41:00.468Z,523.83
2018-08-13T19:43:27.667Z,521.03
2018-08-13T19:45:55.051Z,519.07
2018-08-13T19:48:22.201Z,520.23
2018-08-13T19:50:49.410Z,520.03
2018-08-13T19:53:16.598Z,527.93
2018-08-13T19:55:43.868Z,518.33
2018-08-13T19:58:11.096Z,522.97
2018-08-13T20:00:38.320Z,524.00
2018-08-13T20:03:06.299Z,515.97
2018-08-13T20:05:33.546Z,519.63
2018-08-13T20:08:00.871Z,514.73
2018-08-13T20:10:28.374Z,520.70
2018-08-13T20:12:56.254Z,515.83
2018-08-13T20:15:23.458Z,530.30
2018-08-13T20:17:50.702Z,521.47
2018-08-13T20:20:19.006Z,515.63
2018-08-13T20:22:46.906Z,522.57
2018-08-13T20:25:15.255Z,527.37
2018-08-13T20:27:42.735Z,517.63
2018-08-13T20:30:12.247Z,528.60
2018-08-13T20:32:39.492Z,523.70
2018-08-13T20:35:06.744Z,521.67
2018-08-13T20:37:34.008Z,516.87
2018-08-13T20:40:01.261Z,515.90
2018-08-13T20:42:28.488Z,518.07
2018-08-13T20:44:55.696Z,515.30
2018-08-13T20:47:22.963Z,517.80
2018-08-13T20:49:50.182Z,526.23
2018-08-13T20:52:17.423Z,523.67
2018-08-13T20:54:44.637Z,517.50
2018-08-13T20:57:11.886Z,522.93
2018-08-13T20:59:39.109Z,520.30
2018-08-13T21:02:06.352Z,525.27
2018-08-13T21:04:33.628Z,514.63
2018-08-13T21:07:00.840Z,512.70
2018-08-13T21:09:28.090Z,522.47
2018-08-13T21:11:55.427Z,523.00
2018-08-13T21:14:22.644Z,522.63
2018-08-13T21:16:49.891Z,518.63
2018-08-13T21:19:17.098Z,525.70
2018-08-13T21:21:44.335Z,515.50
2018-08-13T21:24:11.552Z,523.03
2018-08-13T21:26:38.810Z,517.67
2018-08-13T21:29:06.041Z,525.03
2018-08-13T21:31:33.307Z,528.57
2018-08-13T21:34:00.607Z,517.87
2018-08-13T21:36:27.859Z,519.23
2018-08-13T21:38:55.093Z,519.53
2018-08-13T21:41:22.290Z,523.90
2018-08-13T21:43:49.520Z,516.33
2018-08-13T21:46:16.822Z,520.37
2018-08-13T21:48:44.087Z,522.77
2018-08-13T21:51:11.364Z,520.83
2018-08-13T21:53:38.594Z,524.23
2018-08-13T21:56:05.861Z,524.07
2018-08-13T21:58:33.078Z,516.90
2018-08-13T22:01:07.736Z,517.23
2018-08-13T22:03:35.040Z,514.47
2018-08-13T22:06:02.240Z,519.80
2018-08-13T22:08:29.501Z,523.37
2018-08-13T22:10:56.712Z,514.53
2018-08-13T22:13:23.963Z,512.93
2018-08-13T22:15:51.205Z,518.03
2018-08-13T22:18:18.450Z,526.43
2018-08-13T22:20:45.720Z,515.10
2018-08-13T22:23:12.941Z,518.50
2018-08-13T22:25:44.769Z,521.53
2018-08-13T22:28:13.547Z,511.33
2018-08-13T22:30:40.801Z,514.70
2018-08-13T22:33:09.017Z,525.17
2018-08-13T22:35:36.256Z,515.53
2018-08-13T22:38:03.766Z,520.17
2018-08-13T22:40:30.984Z,519.43
2018-08-13T22:42:58.228Z,518.47
2018-08-13T22:45:25.481Z,522.07
2018-08-13T22:47:53.004Z,510.67
2018-08-13T22:50:20.268Z,510.77
2018-08-13T22:52:47.526Z,515.70
2018-08-13T22:55:16.246Z,511.37
2018-08-13T22:57:43.551Z,519.97
2018-08-13T23:00:13.491Z,512.17
2018-08-13T23:02:41.111Z,518.43
2018-08-13T23:05:10.129Z,516.43
2018-08-13T23:07:38.206Z,511.27
2018-08-13T23:10:05.996Z,510.77
2018-08-13T23:12:33.231Z,517.00
2018-08-13T23:15:00.878Z,514.07
2018-08-13T23:17:28.076Z,521.17
2018-08-13T23:19:55.305Z,514.40
2018-08-13T23:23:01.931Z,519.97
2018-08-13T23:25:29.824Z,516.37
2018-08-13T23:27:58.208Z,514.43
2018-08-13T23:30:25.534Z,513.80
2018-08-13T23:32:53.759Z,514.90
2018-08-13T23:35:21.647Z,508.33
2018-08-13T23:37:49.225Z,511.70
2018-08-13T23:40:16.466Z,515.23
2018-08-13T23:42:43.691Z,514.30
2018-08-13T23:45:13.279Z,504.70
2018-08-13T23:47:40.629Z,514.93
2018-08-13T23:50:09.713Z,507.97
2018-08-13T23:52:37.810Z,514.13
2018-08-13T23:55:06.199Z,513.47
2018-08-13T23:57:33.408Z,505.97
